Главная страница
METAR-TAF:

METAR-TAF

Аэропорты :

College Park, Мэриленд, США

широта: 38-58-50N, долгота: 076-55-20W, высота над уровнем моря: 15 м

Текущие метеонаблюдения

Эта сводка был подготовлена 21 минут назад, в 17:48 UTC
Ветер 3 Узел от юго-юго-восточный
Температура -1°C
Влажность 74%
Давление 1026 hPa
Видимость: 16.1 км
Сплошная облачность на высоте 6500 фута

METAR: KCGS 181748Z AUTO 16003KT 10SM OVC065 M01/M05 A3030 RMK AO1 T10101053

Время: 13:09 (18:09 UTC)


TAF: отсутствует

Метеонаблюдения и прогнозы для более 4000 аэропортов (сводки METAR и TAF).

Имеющиеся станции представлены на карте желтыми и красными точками.

Чтобы увидеть название станции, наведите на нее мышь.

Затем щелкните, чтобы увидеть метеонаблюдения и метеопрогнозы.

Управление картой: чтобы увеличить масштаб, щелкните зеленые кнопки с черным крестиком; чтобы уменьшить масштаб, щелкните зеленую кнопку с тире; для просмотра соседних карт щелкайте зеленые стрелки.


METAR-TAF: